createdAt,value
2018-09-12T00:00:05.199Z,21.20
2018-09-12T00:02:33.565Z,21.20
2018-09-12T00:05:01.955Z,21.20
2018-09-12T00:07:30.472Z,21.20
2018-09-12T00:09:58.947Z,21.20
2018-09-12T00:12:28.076Z,21.20
2018-09-12T00:14:56.545Z,21.20
2018-09-12T00:17:24.945Z,21.20
2018-09-12T00:19:53.893Z,21.20
2018-09-12T00:22:22.999Z,21.30
2018-09-12T00:24:51.325Z,21.30
2018-09-12T00:27:19.693Z,21.30
2018-09-12T00:29:48.037Z,21.30
2018-09-12T00:32:16.554Z,21.40
2018-09-12T00:34:44.885Z,21.50
2018-09-12T00:37:13.991Z,21.50
2018-09-12T00:39:42.335Z,21.50
2018-09-12T00:42:10.708Z,21.60
2018-09-12T00:44:40.102Z,21.60
2018-09-12T00:47:08.499Z,21.60
2018-09-12T00:49:36.843Z,21.60
2018-09-12T00:52:05.350Z,21.60
2018-09-12T00:54:34.116Z,21.60
2018-09-12T00:57:02.496Z,21.60
2018-09-12T00:59:30.846Z,21.60
2018-09-12T01:01:59.231Z,21.60
2018-09-12T01:04:27.774Z,21.60
2018-09-12T01:06:56.109Z,21.50
2018-09-12T01:09:24.449Z,21.50
2018-09-12T01:11:53.683Z,21.50
2018-09-12T01:14:22.155Z,21.50
2018-09-12T01:16:50.533Z,21.50
2018-09-12T01:19:18.963Z,21.50
2018-09-12T01:21:47.313Z,21.40
2018-09-12T01:24:15.775Z,21.50
2018-09-12T01:26:44.215Z,21.50
2018-09-12T01:29:12.544Z,21.40
2018-09-12T01:31:41.013Z,21.50
2018-09-12T01:34:09.455Z,21.40
2018-09-12T01:36:37.867Z,21.40
2018-09-12T01:39:06.246Z,21.40
2018-09-12T01:41:34.635Z,21.30
2018-09-12T01:44:03.093Z,21.30
2018-09-12T01:46:32.309Z,21.30
2018-09-12T01:49:01.279Z,21.20
2018-09-12T01:51:29.678Z,21.20
2018-09-12T01:53:58.114Z,21.20
2018-09-12T01:56:26.607Z,21.20
2018-09-12T01:58:55.087Z,21.20
2018-09-12T02:01:23.459Z,21.20
2018-09-12T02:03:51.843Z,21.20
2018-09-12T02:06:20.183Z,21.10
2018-09-12T02:08:48.661Z,21.10
2018-09-12T02:11:17.026Z,21.10
2018-09-12T02:13:45.441Z,21.10
2018-09-12T02:16:13.906Z,21.00
2018-09-12T02:18:42.283Z,21.00
2018-09-12T02:21:10.677Z,21.00
2018-09-12T02:23:39.007Z,20.90
2018-09-12T02:26:07.378Z,20.90
2018-09-12T02:28:36.527Z,20.80
2018-09-12T02:31:05.041Z,20.80
2018-09-12T02:33:33.394Z,20.80
2018-09-12T02:36:01.795Z,20.80
2018-09-12T02:38:30.103Z,20.80
2018-09-12T02:40:59.227Z,20.70
2018-09-12T02:43:27.567Z,20.70
2018-09-12T02:45:56.710Z,20.70
2018-09-12T02:48:25.098Z,20.70
2018-09-12T02:50:53.512Z,20.70
2018-09-12T02:53:21.838Z,20.70
2018-09-12T02:55:50.221Z,20.70
2018-09-12T02:58:18.638Z,20.70
2018-09-12T03:00:47.092Z,20.70
2018-09-12T03:03:15.463Z,20.70
2018-09-12T03:05:43.803Z,20.70
2018-09-12T03:08:12.937Z,20.70
2018-09-12T03:10:41.326Z,20.70
2018-09-12T03:13:09.669Z,20.70
2018-09-12T03:15:38.769Z,20.70
2018-09-12T03:18:07.913Z,20.60
2018-09-12T03:20:36.337Z,20.60
2018-09-12T03:23:04.642Z,20.60
2018-09-12T03:25:33.020Z,20.60
2018-09-12T03:28:01.491Z,20.50
2018-09-12T03:30:30.663Z,20.50
2018-09-12T03:32:59.028Z,20.50
2018-09-12T03:35:27.495Z,20.50
2018-09-12T03:37:55.908Z,20.50
2018-09-12T03:40:24.264Z,20.40
2018-09-12T03:42:52.596Z,20.50
2018-09-12T03:45:20.984Z,20.40
2018-09-12T03:47:49.356Z,20.40
2018-09-12T03:50:18.490Z,20.30
2018-09-12T03:52:46.864Z,20.30
2018-09-12T03:55:15.338Z,20.30
2018-09-12T03:57:43.661Z,20.30
2018-09-12T04:00:12.802Z,20.20
2018-09-12T04:02:41.240Z,20.20
2018-09-12T04:05:09.520Z,20.20
2018-09-12T04:07:38.638Z,20.20
2018-09-12T04:10:07.074Z,20.20
2018-09-12T04:12:35.567Z,20.20
2018-09-12T04:15:03.992Z,20.10
2018-09-12T04:17:32.354Z,20.10
2018-09-12T04:20:00.718Z,20.00
2018-09-12T04:22:29.914Z,20.00
2018-09-12T04:24:58.333Z,20.00
2018-09-12T04:27:26.661Z,20.00
2018-09-12T04:29:55.636Z,19.90
2018-09-12T04:32:24.077Z,19.90
2018-09-12T04:34:52.399Z,19.90
2018-09-12T04:37:20.794Z,19.90
2018-09-12T04:39:49.273Z,19.90
2018-09-12T04:42:17.651Z,19.90
2018-09-12T04:44:45.998Z,19.90
2018-09-12T04:47:14.329Z,19.80
2018-09-12T04:49:43.571Z,19.80
2018-09-12T04:52:11.935Z,19.80
2018-09-12T04:54:40.322Z,19.80
2018-09-12T04:57:08.692Z,19.90
2018-09-12T04:59:37.095Z,19.90
2018-09-12T05:02:05.406Z,19.90
2018-09-12T05:04:35.329Z,19.90
2018-09-12T05:07:03.653Z,19.90
2018-09-12T05:09:32.069Z,19.90
2018-09-12T05:12:00.415Z,20.00
2018-09-12T05:14:28.848Z,20.00
2018-09-12T05:16:57.978Z,20.00
2018-09-12T05:19:26.358Z,20.00
2018-09-12T05:21:54.731Z,20.10
2018-09-12T05:24:23.054Z,20.10
2018-09-12T05:26:51.514Z,20.10
2018-09-12T05:29:19.910Z,20.20
2018-09-12T05:31:48.287Z,20.20
2018-09-12T05:34:16.692Z,20.20
2018-09-12T05:36:45.035Z,20.20
2018-09-12T05:39:13.414Z,20.20
2018-09-12T05:41:41.748Z,20.20
2018-09-12T05:44:10.914Z,20.30
2018-09-12T05:46:39.368Z,20.30
2018-09-12T05:49:07.716Z,20.30
2018-09-12T05:51:36.818Z,20.40
2018-09-12T05:54:05.944Z,20.50
2018-09-12T05:56:34.282Z,20.40
2018-09-12T05:59:03.410Z,20.60
2018-09-12T06:01:31.732Z,20.50
2018-09-12T06:04:00.118Z,20.60
2018-09-12T06:06:28.571Z,20.60
2018-09-12T06:08:56.831Z,20.60
2018-09-12T06:11:25.352Z,20.60
2018-09-12T06:13:53.837Z,20.70
2018-09-12T06:16:22.870Z,20.80
2018-09-12T06:18:51.469Z,20.80
2018-09-12T06:21:19.890Z,20.80
2018-09-12T06:23:48.247Z,20.80
2018-09-12T06:26:16.707Z,20.80
2018-09-12T06:28:45.051Z,20.80
2018-09-12T06:31:14.147Z,20.80
2018-09-12T06:33:43.397Z,20.70
2018-09-12T06:36:11.827Z,20.70
2018-09-12T06:38:40.226Z,20.70
2018-09-12T06:41:08.904Z,20.70
2018-09-12T06:43:38.008Z,20.70
2018-09-12T06:46:07.114Z,20.70
2018-09-12T06:48:35.998Z,20.70
2018-09-12T06:51:04.380Z,20.70
2018-09-12T06:53:32.718Z,20.70
2018-09-12T06:56:01.137Z,20.70
2018-09-12T06:58:29.510Z,20.80
2018-09-12T07:00:57.945Z,20.90
2018-09-12T07:03:26.480Z,20.80
2018-09-12T07:05:54.867Z,20.90
2018-09-12T07:08:23.196Z,20.80
2018-09-12T07:10:51.585Z,20.80
2018-09-12T07:13:20.006Z,20.90
2018-09-12T07:15:48.392Z,20.90
2018-09-12T07:18:16.720Z,20.90
2018-09-12T07:20:45.134Z,20.90
2018-09-12T07:23:13.479Z,20.80
2018-09-12T07:25:41.894Z,20.80
2018-09-12T07:28:10.264Z,20.90
2018-09-12T07:30:38.824Z,20.90
2018-09-12T07:33:07.153Z,20.90
2018-09-12T07:35:35.536Z,20.90
2018-09-12T07:38:03.860Z,21.00
2018-09-12T07:40:32.293Z,20.90
2018-09-12T07:43:00.678Z,20.90
2018-09-12T07:45:29.034Z,21.00
2018-09-12T07:47:57.384Z,21.00
2018-09-12T07:50:26.537Z,21.10
2018-09-12T07:52:54.869Z,21.10
2018-09-12T07:55:24.089Z,21.20
2018-09-12T07:57:52.479Z,21.20
2018-09-12T08:00:20.934Z,21.30
2018-09-12T08:02:49.332Z,21.50
2018-09-12T08:05:17.716Z,21.60
2018-09-12T08:07:46.312Z,21.60
2018-09-12T08:10:14.681Z,21.70
2018-09-12T08:12:43.261Z,21.80
2018-09-12T08:15:11.611Z,21.90
2018-09-12T08:17:40.749Z,22.10
2018-09-12T08:20:09.129Z,22.10
2018-09-12T08:22:37.508Z,22.20
2018-09-12T08:25:05.857Z,22.30
2018-09-12T08:27:34.233Z,22.40
2018-09-12T08:30:02.579Z,22.50
2018-09-12T08:32:31.125Z,22.50
2018-09-12T08:34:59.471Z,22.60
2018-09-12T08:37:28.610Z,22.70
2018-09-12T08:39:57.465Z,22.70
2018-09-12T08:42:26.941Z,22.80
2018-09-12T08:44:55.275Z,22.70
2018-09-12T08:47:23.595Z,22.80
2018-09-12T08:49:52.041Z,22.80
2018-09-12T08:52:20.393Z,23.00
2018-09-12T08:54:48.763Z,23.00
2018-09-12T08:57:17.271Z,23.10
2018-09-12T08:59:45.701Z,23.20
2018-09-12T09:02:14.121Z,23.40
2018-09-12T09:04:42.509Z,23.50
2018-09-12T09:07:10.891Z,23.70
2018-09-12T09:09:39.245Z,23.90
2018-09-12T09:12:07.641Z,24.00
2018-09-12T09:14:35.967Z,24.00
2018-09-12T09:17:04.336Z,23.80
2018-09-12T09:19:32.776Z,23.80
2018-09-12T09:22:01.164Z,23.90
2018-09-12T09:24:29.535Z,24.00
2018-09-12T09:26:57.907Z,24.20
2018-09-12T09:29:26.284Z,24.40
2018-09-12T09:31:54.643Z,24.60
2018-09-12T09:34:23.115Z,24.60
2018-09-12T09:36:51.473Z,24.50
2018-09-12T09:39:19.819Z,24.20
2018-09-12T09:41:48.829Z,24.00
2018-09-12T09:44:17.193Z,23.80
2018-09-12T09:46:45.535Z,23.50
2018-09-12T09:49:14.696Z,23.10
2018-09-12T09:51:43.074Z,23.10
2018-09-12T09:54:11.499Z,22.80
2018-09-12T09:56:39.869Z,22.60
2018-09-12T09:59:08.511Z,22.50
2018-09-12T10:04:33.149Z,22.40
2018-09-12T10:07:02.079Z,22.50
2018-09-12T10:09:30.402Z,22.40
2018-09-12T10:11:58.836Z,22.40
2018-09-12T10:14:27.110Z,22.70
2018-09-12T10:16:55.508Z,23.00
2018-09-12T10:19:23.916Z,23.30
2018-09-12T10:21:52.260Z,23.10
2018-09-12T10:24:20.714Z,23.20
2018-09-12T10:26:49.040Z,23.40
2018-09-12T10:29:17.946Z,23.80
2018-09-12T10:31:46.382Z,24.00
2018-09-12T10:34:15.059Z,23.90
2018-09-12T10:36:43.355Z,23.60
2018-09-12T10:39:11.807Z,23.30
2018-09-12T10:41:40.123Z,23.10
2018-09-12T10:44:08.486Z,22.90
2018-09-12T10:46:37.035Z,22.60
2018-09-12T10:49:05.454Z,22.40
2018-09-12T10:51:34.074Z,22.30
2018-09-12T10:54:02.464Z,22.10
2018-09-12T10:56:30.799Z,22.00
2018-09-12T10:58:59.566Z,22.00
2018-09-12T11:01:27.870Z,22.00
2018-09-12T11:03:56.198Z,22.20
2018-09-12T11:06:24.736Z,22.50
2018-09-12T11:08:53.108Z,22.60
2018-09-12T11:11:21.463Z,22.70
2018-09-12T11:13:50.959Z,22.40
2018-09-12T11:16:19.284Z,22.40
2018-09-12T11:18:47.669Z,22.10
2018-09-12T11:21:16.023Z,22.00
2018-09-12T11:23:44.382Z,21.70
2018-09-12T11:26:13.522Z,21.30
2018-09-12T11:28:41.867Z,21.20
2018-09-12T11:31:10.997Z,20.90
2018-09-12T11:33:39.389Z,20.90
2018-09-12T11:36:07.690Z,20.80
2018-09-12T11:38:36.062Z,20.70
2018-09-12T11:41:06.112Z,20.50
2018-09-12T11:43:35.227Z,20.50
2018-09-12T11:46:03.613Z,20.40
2018-09-12T11:48:31.936Z,20.50
2018-09-12T11:51:00.270Z,20.70
2018-09-12T11:53:28.647Z,20.80
2018-09-12T11:55:57.168Z,21.00
2018-09-12T11:58:25.601Z,21.50
2018-09-12T12:00:53.950Z,22.10
2018-09-12T12:03:22.409Z,22.80
2018-09-12T12:05:50.848Z,23.30
2018-09-12T12:08:19.261Z,23.00
2018-09-12T12:10:47.637Z,22.50
2018-09-12T12:13:15.973Z,22.30
2018-09-12T12:15:45.111Z,22.10
2018-09-12T12:18:13.472Z,22.10
2018-09-12T12:20:41.857Z,22.00
2018-09-12T12:23:10.272Z,21.60
2018-09-12T12:25:38.711Z,21.20
2018-09-12T12:28:07.093Z,21.10
2018-09-12T12:30:35.511Z,21.10
2018-09-12T12:33:03.853Z,21.00
2018-09-12T12:35:32.240Z,20.70
2018-09-12T12:38:01.277Z,20.70
2018-09-12T12:40:29.699Z,20.60
2018-09-12T12:42:58.079Z,20.50
2018-09-12T12:45:26.435Z,20.60
2018-09-12T12:47:55.661Z,20.40
2018-09-12T12:50:24.009Z,20.40
2018-09-12T12:52:52.339Z,20.30
2018-09-12T12:55:21.387Z,20.40
2018-09-12T12:57:50.505Z,20.50
2018-09-12T13:00:18.895Z,20.50
2018-09-12T13:02:47.285Z,20.60
2018-09-12T13:05:15.635Z,20.50
2018-09-12T13:07:44.932Z,20.50
2018-09-12T13:10:14.067Z,20.60
2018-09-12T13:12:42.603Z,20.60
2018-09-12T13:15:11.747Z,20.10
2018-09-12T13:17:40.128Z,20.10
2018-09-12T13:20:08.712Z,20.00
2018-09-12T13:22:37.100Z,20.10
2018-09-12T13:25:05.414Z,20.20
2018-09-12T13:27:34.572Z,19.80
2018-09-12T13:30:02.935Z,19.80
2018-09-12T13:32:31.265Z,19.60
2018-09-12T13:35:00.506Z,19.30
2018-09-12T13:37:28.853Z,19.30
2018-09-12T13:39:57.995Z,19.00
2018-09-12T13:42:26.462Z,18.90
2018-09-12T13:44:54.863Z,18.90
2018-09-12T13:47:23.191Z,18.90
2018-09-12T13:49:52.323Z,18.90
2018-09-12T13:52:20.819Z,18.90
2018-09-12T13:54:49.187Z,18.90
2018-09-12T13:57:17.584Z,18.80
2018-09-12T13:59:46.083Z,18.80
2018-09-12T14:02:14.452Z,18.70
2018-09-12T14:04:42.815Z,18.60
2018-09-12T14:07:11.221Z,18.60
2018-09-12T14:09:39.754Z,18.50
2018-09-12T14:12:08.094Z,18.30
2018-09-12T14:14:36.547Z,18.30
2018-09-12T14:17:04.924Z,18.30
2018-09-12T14:19:33.883Z,18.30
2018-09-12T14:22:02.256Z,18.40
2018-09-12T14:24:31.417Z,18.30
2018-09-12T14:26:59.791Z,18.20
2018-09-12T14:29:28.103Z,18.20
2018-09-12T14:31:57.199Z,18.30
2018-09-12T14:34:26.441Z,18.20
2018-09-12T14:36:54.739Z,18.10
2018-09-12T14:39:23.136Z,18.10
2018-09-12T14:41:51.574Z,18.00
2018-09-12T14:44:20.053Z,18.00
2018-09-12T14:46:48.541Z,18.00
2018-09-12T14:49:16.875Z,18.00
2018-09-12T14:51:45.999Z,18.00
2018-09-12T14:54:14.321Z,18.00
2018-09-12T14:56:42.713Z,18.00
2018-09-12T14:59:11.074Z,18.00
2018-09-12T15:01:39.496Z,17.90
2018-09-12T15:04:08.701Z,17.80
2018-09-12T15:06:37.163Z,17.80
2018-09-12T15:09:05.515Z,17.70
2018-09-12T15:11:33.953Z,17.50
2018-09-12T15:14:02.292Z,17.40
2018-09-12T15:16:30.642Z,17.40
2018-09-12T15:18:59.013Z,17.50
2018-09-12T15:21:27.378Z,17.50
2018-09-12T15:23:56.593Z,17.50
2018-09-12T15:26:25.111Z,17.60
2018-09-12T15:28:53.482Z,17.60
2018-09-12T15:31:21.876Z,17.60
2018-09-12T15:33:50.209Z,17.50
2018-09-12T15:36:18.576Z,17.50
2018-09-12T15:38:46.914Z,17.50
2018-09-12T15:41:16.116Z,17.40
2018-09-12T15:43:44.428Z,17.30
2018-09-12T15:46:12.780Z,17.30
2018-09-12T15:48:41.105Z,17.30
2018-09-12T15:51:09.455Z,17.30
2018-09-12T15:53:37.980Z,17.40
2018-09-12T15:56:07.214Z,17.40
2018-09-12T15:58:37.299Z,17.50
2018-09-12T16:01:05.846Z,17.50
2018-09-12T16:03:34.200Z,17.60
2018-09-12T16:06:02.606Z,17.60
2018-09-12T16:08:30.986Z,17.60
2018-09-12T16:10:59.457Z,17.60
2018-09-12T16:13:27.893Z,17.60
2018-09-12T16:15:56.322Z,17.60
2018-09-12T16:18:24.686Z,17.50
2018-09-12T16:20:53.094Z,17.50
2018-09-12T16:23:21.602Z,17.40
2018-09-12T16:25:50.019Z,17.40
2018-09-12T16:28:19.237Z,17.40
2018-09-12T16:30:47.635Z,17.40
2018-09-12T16:33:16.055Z,17.40
2018-09-12T16:35:44.439Z,17.40
2018-09-12T16:38:12.845Z,17.30
2018-09-12T16:40:42.017Z,17.20
2018-09-12T16:43:10.634Z,17.20
2018-09-12T16:45:40.223Z,17.20
2018-09-12T16:48:08.543Z,17.20
2018-09-12T16:50:37.925Z,17.20
2018-09-12T16:53:06.219Z,17.10
2018-09-12T16:55:34.596Z,17.00
2018-09-12T16:58:03.001Z,17.00
2018-09-12T17:00:31.449Z,16.90
2018-09-12T17:02:59.860Z,16.90
2018-09-12T17:05:28.939Z,16.90
2018-09-12T17:07:57.319Z,16.90
2018-09-12T17:10:25.798Z,16.80
2018-09-12T17:12:54.161Z,16.80
2018-09-12T17:15:22.591Z,16.80
2018-09-12T17:17:51.083Z,16.70
2018-09-12T17:20:19.501Z,16.70
2018-09-12T17:22:47.849Z,16.60
2018-09-12T17:25:16.240Z,16.60
2018-09-12T17:27:45.391Z,16.30
2018-09-12T17:30:13.727Z,16.30
2018-09-12T17:32:42.858Z,16.20
2018-09-12T17:35:11.194Z,16.20
2018-09-12T17:37:39.608Z,16.20
2018-09-12T17:40:08.045Z,16.20
2018-09-12T17:42:37.373Z,16.10
2018-09-12T17:45:05.837Z,16.00
2018-09-12T17:47:34.985Z,16.00
2018-09-12T17:50:03.442Z,15.90
2018-09-12T17:52:31.788Z,15.90
2018-09-12T17:55:01.421Z,15.90
2018-09-12T17:57:30.628Z,15.90
2018-09-12T17:59:59.939Z,15.90
2018-09-12T18:02:28.346Z,15.90
2018-09-12T18:04:56.825Z,15.90
2018-09-12T18:07:25.314Z,15.90
2018-09-12T18:09:53.720Z,15.90
2018-09-12T18:12:22.188Z,15.90
2018-09-12T18:14:50.593Z,15.90
2018-09-12T18:17:19.750Z,16.00
2018-09-12T18:19:48.093Z,15.90
2018-09-12T18:22:16.482Z,16.00
2018-09-12T18:24:44.920Z,16.00
2018-09-12T18:27:13.516Z,16.00
2018-09-12T18:29:42.736Z,16.10
2018-09-12T18:32:11.444Z,16.10
2018-09-12T18:34:39.990Z,16.10
2018-09-12T18:37:08.508Z,16.10
2018-09-12T18:39:36.882Z,17.40
2018-09-12T18:42:05.504Z,16.20
2018-09-12T18:44:33.901Z,16.20
2018-09-12T18:47:02.494Z,16.10
2018-09-12T18:49:31.065Z,16.10
2018-09-12T18:51:59.498Z,16.10
2018-09-12T18:54:27.857Z,16.10
2018-09-12T18:56:56.317Z,16.10
2018-09-12T18:59:25.016Z,16.10
2018-09-12T19:01:53.555Z,16.10
2018-09-12T19:04:22.193Z,16.20
2018-09-12T19:06:51.458Z,16.30
2018-09-12T19:09:19.777Z,16.30
2018-09-12T19:11:48.175Z,16.40
2018-09-12T19:14:16.574Z,16.40
2018-09-12T19:16:45.010Z,16.40
2018-09-12T19:19:13.723Z,16.40
2018-09-12T19:21:42.305Z,16.40
2018-09-12T19:24:10.755Z,16.30
2018-09-12T19:26:39.139Z,16.30
2018-09-12T19:29:07.519Z,16.30
2018-09-12T19:31:36.727Z,16.10
2018-09-12T19:34:05.277Z,16.10
2018-09-12T19:36:34.444Z,15.90
2018-09-12T19:39:02.841Z,15.90
2018-09-12T19:41:31.350Z,15.90
2018-09-12T19:44:00.562Z,15.80
2018-09-12T19:46:29.729Z,15.70
2018-09-12T19:48:59.095Z,15.70
2018-09-12T19:51:27.748Z,15.70
2018-09-12T19:53:56.301Z,15.70
2018-09-12T19:56:24.768Z,15.70
2018-09-12T19:58:53.897Z,15.60
2018-09-12T20:01:23.285Z,15.70
2018-09-12T20:03:51.798Z,15.70
2018-09-12T20:06:20.349Z,15.70
2018-09-12T20:08:48.979Z,15.70
2018-09-12T20:11:17.531Z,15.60
2018-09-12T20:13:46.975Z,15.60
2018-09-12T20:16:15.830Z,15.60
2018-09-12T20:18:45.243Z,15.60
2018-09-12T20:21:16.814Z,15.60
2018-09-12T20:23:45.731Z,15.70
2018-09-12T20:26:14.661Z,15.60
2018-09-12T20:28:45.251Z,15.60
2018-09-12T20:31:13.781Z,15.60
2018-09-12T20:33:42.239Z,15.60
2018-09-12T20:36:10.595Z,15.60
2018-09-12T20:38:38.977Z,15.60
2018-09-12T20:41:07.366Z,15.60
2018-09-12T20:43:35.721Z,15.70
2018-09-12T20:46:04.428Z,15.70
2018-09-12T20:48:32.831Z,15.70
2018-09-12T20:51:01.221Z,15.70
2018-09-12T20:53:30.345Z,15.70
2018-09-12T20:55:58.713Z,15.70
2018-09-12T20:58:27.080Z,15.70
2018-09-12T21:00:55.449Z,15.70
2018-09-12T21:03:24.615Z,15.70
2018-09-12T21:05:53.001Z,15.70
2018-09-12T21:08:21.339Z,15.70
2018-09-12T21:10:49.841Z,15.70
2018-09-12T21:13:18.184Z,15.70
2018-09-12T21:15:46.594Z,15.70
2018-09-12T21:18:15.044Z,15.70
2018-09-12T21:20:43.361Z,15.60
2018-09-12T21:23:11.683Z,15.60
2018-09-12T21:25:40.823Z,15.60
2018-09-12T21:28:09.155Z,15.60
2018-09-12T21:30:38.291Z,15.60
2018-09-12T21:33:06.795Z,15.60
2018-09-12T21:35:35.152Z,15.60
2018-09-12T21:38:04.279Z,15.60
2018-09-12T21:40:32.774Z,15.60
2018-09-12T21:43:01.344Z,15.60
2018-09-12T21:45:29.803Z,15.60
2018-09-12T21:47:58.337Z,15.60
2018-09-12T21:50:26.712Z,15.60
2018-09-12T21:52:55.163Z,15.60
2018-09-12T21:55:23.537Z,15.50
2018-09-12T21:57:51.921Z,15.50
2018-09-12T22:00:20.327Z,15.50
2018-09-12T22:02:48.684Z,15.50
2018-09-12T22:05:18.381Z,15.40
2018-09-12T22:07:46.837Z,15.40
2018-09-12T22:10:15.948Z,15.30
2018-09-12T22:12:45.058Z,15.30
2018-09-12T22:15:13.415Z,15.30
2018-09-12T22:17:41.797Z,15.30
2018-09-12T22:20:10.222Z,15.30
2018-09-12T22:22:38.556Z,15.40
2018-09-12T22:25:07.021Z,15.40
2018-09-12T22:27:35.406Z,15.40
2018-09-12T22:30:04.772Z,15.50
2018-09-12T22:32:33.123Z,15.50
2018-09-12T22:35:01.454Z,15.50
2018-09-12T22:37:29.842Z,15.40
2018-09-12T22:39:58.941Z,15.50
2018-09-12T22:42:28.071Z,15.50
2018-09-12T22:44:56.413Z,15.50
2018-09-12T22:47:25.513Z,15.40
2018-09-12T22:49:53.895Z,15.40
2018-09-12T22:52:22.270Z,15.50
2018-09-12T22:54:50.607Z,15.40
2018-09-12T22:57:18.983Z,15.40
2018-09-12T22:59:47.333Z,15.40
2018-09-12T23:02:15.729Z,15.40
2018-09-12T23:04:44.087Z,15.50
2018-09-12T23:07:12.496Z,15.40
2018-09-12T23:09:40.845Z,15.40
2018-09-12T23:12:10.265Z,15.40
2018-09-12T23:14:38.593Z,15.40
2018-09-12T23:17:07.734Z,15.30
2018-09-12T23:19:36.064Z,15.30
2018-09-12T23:22:04.442Z,15.30
2018-09-12T23:24:32.792Z,15.30
2018-09-12T23:27:01.148Z,15.40
2018-09-12T23:29:29.506Z,15.30
2018-09-12T23:31:57.865Z,15.30
2018-09-12T23:34:26.995Z,15.30
2018-09-12T23:36:55.336Z,15.20
2018-09-12T23:39:23.688Z,15.20
2018-09-12T23:41:52.637Z,15.30
2018-09-12T23:44:20.956Z,15.20
2018-09-12T23:46:49.293Z,15.20
2018-09-12T23:49:17.647Z,15.20
2018-09-12T23:51:46.769Z,15.20
2018-09-12T23:54:15.123Z,15.10
2018-09-12T23:56:44.273Z,15.20
2018-09-12T23:59:12.735Z,15.20
